sensor_id;sensor_type;location;lat;lon;timestamp;P1;durP1;ratioP1;P2;durP2;ratioP2
76202;SDS011;64985;46.364;17.008;2023-02-05T00:01:56;3.65;;;1.85;;
76202;SDS011;64985;46.364;17.008;2023-02-05T00:04:59;3.85;;;1.73;;
76202;SDS011;64985;46.364;17.008;2023-02-05T00:08:01;2.88;;;1.58;;
76202;SDS011;64985;46.364;17.008;2023-02-05T00:11:03;2.97;;;1.55;;
76202;SDS011;64985;46.364;17.008;2023-02-05T00:14:09;4.88;;;1.92;;
76202;SDS011;64985;46.364;17.008;2023-02-05T00:17:11;2.90;;;1.60;;
76202;SDS011;64985;46.364;17.008;2023-02-05T00:20:14;4.57;;;1.92;;
76202;SDS011;64985;46.364;17.008;2023-02-05T00:23:16;5.05;;;2.00;;
76202;SDS011;64985;46.364;17.008;2023-02-05T00:26:18;3.33;;;1.80;;
76202;SDS011;64985;46.364;17.008;2023-02-05T00:29:21;3.13;;;1.85;;
76202;SDS011;64985;46.364;17.008;2023-02-05T00:32:23;3.45;;;1.80;;
76202;SDS011;64985;46.364;17.008;2023-02-05T00:35:25;3.33;;;1.63;;
76202;SDS011;64985;46.364;17.008;2023-02-05T00:38:27;4.40;;;1.73;;
76202;SDS011;64985;46.364;17.008;2023-02-05T00:41:30;4.82;;;1.83;;
76202;SDS011;64985;46.364;17.008;2023-02-05T00:44:32;2.75;;;1.70;;
76202;SDS011;64985;46.364;17.008;2023-02-05T00:47:34;4.68;;;1.98;;
76202;SDS011;64985;46.364;17.008;2023-02-05T00:50:36;3.78;;;1.98;;
76202;SDS011;64985;46.364;17.008;2023-02-05T00:53:39;4.55;;;1.60;;
76202;SDS011;64985;46.364;17.008;2023-02-05T00:56:41;3.22;;;1.48;;
76202;SDS011;64985;46.364;17.008;2023-02-05T00:59:43;4.20;;;1.52;;
76202;SDS011;64985;46.364;17.008;2023-02-05T01:02:45;3.85;;;1.80;;
76202;SDS011;64985;46.364;17.008;2023-02-05T01:05:48;3.33;;;1.67;;
76202;SDS011;64985;46.364;17.008;2023-02-05T01:08:50;4.50;;;1.50;;
76202;SDS011;64985;46.364;17.008;2023-02-05T01:11:52;4.50;;;1.95;;
76202;SDS011;64985;46.364;17.008;2023-02-05T01:14:54;8.00;;;2.20;;
76202;SDS011;64985;46.364;17.008;2023-02-05T01:17:56;5.53;;;2.20;;
76202;SDS011;64985;46.364;17.008;2023-02-05T01:21:00;4.20;;;1.85;;
76202;SDS011;64985;46.364;17.008;2023-02-05T01:24:03;4.13;;;2.15;;
76202;SDS011;64985;46.364;17.008;2023-02-05T01:27:06;3.90;;;1.80;;
76202;SDS011;64985;46.364;17.008;2023-02-05T01:30:08;3.55;;;1.90;;
76202;SDS011;64985;46.364;17.008;2023-02-05T01:33:12;4.88;;;1.85;;
76202;SDS011;64985;46.364;17.008;2023-02-05T01:36:14;2.67;;;1.80;;
76202;SDS011;64985;46.364;17.008;2023-02-05T01:39:17;3.58;;;1.88;;
76202;SDS011;64985;46.364;17.008;2023-02-05T01:42:20;4.38;;;2.00;;
76202;SDS011;64985;46.364;17.008;2023-02-05T01:48:28;4.95;;;2.53;;
76202;SDS011;64985;46.364;17.008;2023-02-05T01:51:35;15.15;;;5.95;;
76202;SDS011;64985;46.364;17.008;2023-02-05T01:54:39;12.88;;;5.97;;
76202;SDS011;64985;46.364;17.008;2023-02-05T01:57:45;13.77;;;5.85;;
76202;SDS011;64985;46.364;17.008;2023-02-05T02:00:48;6.45;;;3.60;;
76202;SDS011;64985;46.364;17.008;2023-02-05T02:03:51;9.48;;;3.30;;
76202;SDS011;64985;46.364;17.008;2023-02-05T02:06:55;6.40;;;3.05;;
76202;SDS011;64985;46.364;17.008;2023-02-05T02:09:58;7.53;;;3.38;;
76202;SDS011;64985;46.364;17.008;2023-02-05T02:13:00;4.72;;;2.60;;
76202;SDS011;64985;46.364;17.008;2023-02-05T02:16:03;4.80;;;2.17;;
76202;SDS011;64985;46.364;17.008;2023-02-05T02:19:16;4.72;;;2.40;;
76202;SDS011;64985;46.364;17.008;2023-02-05T02:25:47;5.25;;;2.58;;
76202;SDS011;64985;46.364;17.008;2023-02-05T02:29:06;3.80;;;2.28;;
76202;SDS011;64985;46.364;17.008;2023-02-05T02:32:14;6.00;;;2.70;;
76202;SDS011;64985;46.364;17.008;2023-02-05T02:35:46;5.75;;;3.13;;
76202;SDS011;64985;46.364;17.008;2023-02-05T02:39:10;5.97;;;2.70;;
76202;SDS011;64985;46.364;17.008;2023-02-05T02:42:20;7.47;;;2.97;;
76202;SDS011;64985;46.364;17.008;2023-02-05T02:45:35;5.05;;;2.33;;
76202;SDS011;64985;46.364;17.008;2023-02-05T02:48:46;8.35;;;3.10;;
76202;SDS011;64985;46.364;17.008;2023-02-05T02:51:52;6.28;;;3.10;;
76202;SDS011;64985;46.364;17.008;2023-02-05T02:54:56;4.32;;;2.55;;
76202;SDS011;64985;46.364;17.008;2023-02-05T02:58:06;6.60;;;2.72;;
76202;SDS011;64985;46.364;17.008;2023-02-05T03:01:11;4.95;;;2.55;;
76202;SDS011;64985;46.364;17.008;2023-02-05T03:04:20;6.10;;;2.83;;
76202;SDS011;64985;46.364;17.008;2023-02-05T03:07:28;5.47;;;2.67;;
76202;SDS011;64985;46.364;17.008;2023-02-05T03:10:36;6.68;;;3.10;;
76202;SDS011;64985;46.364;17.008;2023-02-05T03:13:43;5.63;;;2.67;;
76202;SDS011;64985;46.364;17.008;2023-02-05T03:16:45;6.28;;;2.85;;
76202;SDS011;64985;46.364;17.008;2023-02-05T03:19:49;6.63;;;3.20;;
76202;SDS011;64985;46.364;17.008;2023-02-05T03:22:58;5.78;;;2.45;;
76202;SDS011;64985;46.364;17.008;2023-02-05T03:26:00;6.07;;;2.55;;
76202;SDS011;64985;46.364;17.008;2023-02-05T03:29:06;4.60;;;2.80;;
76202;SDS011;64985;46.364;17.008;2023-02-05T03:42:41;4.47;;;2.50;;
76202;SDS011;64985;46.364;17.008;2023-02-05T03:52:57;4.15;;;2.33;;
76202;SDS011;64985;46.364;17.008;2023-02-05T03:56:15;5.07;;;2.53;;
76202;SDS011;64985;46.364;17.008;2023-02-05T03:59:22;6.30;;;2.72;;
76202;SDS011;64985;46.364;17.008;2023-02-05T04:02:26;6.03;;;2.80;;
76202;SDS011;64985;46.364;17.008;2023-02-05T04:05:29;6.82;;;2.92;;
76202;SDS011;64985;46.364;17.008;2023-02-05T04:08:32;8.63;;;3.55;;
76202;SDS011;64985;46.364;17.008;2023-02-05T04:11:34;12.00;;;4.38;;
76202;SDS011;64985;46.364;17.008;2023-02-05T04:14:38;6.95;;;3.33;;
76202;SDS011;64985;46.364;17.008;2023-02-05T04:17:40;7.47;;;3.10;;
76202;SDS011;64985;46.364;17.008;2023-02-05T04:20:43;7.20;;;3.03;;
76202;SDS011;64985;46.364;17.008;2023-02-05T04:23:45;5.72;;;2.80;;
76202;SDS011;64985;46.364;17.008;2023-02-05T04:26:48;5.25;;;2.42;;
76202;SDS011;64985;46.364;17.008;2023-02-05T04:29:51;5.57;;;2.67;;
76202;SDS011;64985;46.364;17.008;2023-02-05T04:32:53;5.20;;;2.25;;
76202;SDS011;64985;46.364;17.008;2023-02-05T04:35:58;5.00;;;2.17;;
76202;SDS011;64985;46.364;17.008;2023-02-05T04:39:01;4.97;;;2.10;;
76202;SDS011;64985;46.364;17.008;2023-02-05T04:42:04;4.15;;;2.15;;
76202;SDS011;64985;46.364;17.008;2023-02-05T04:45:06;7.53;;;2.85;;
76202;SDS011;64985;46.364;17.008;2023-02-05T04:48:09;5.60;;;2.38;;
76202;SDS011;64985;46.364;17.008;2023-02-05T04:51:12;5.72;;;2.70;;
76202;SDS011;64985;46.364;17.008;2023-02-05T04:54:15;4.82;;;2.47;;
76202;SDS011;64985;46.364;17.008;2023-02-05T04:57:17;4.40;;;2.28;;
76202;SDS011;64985;46.364;17.008;2023-02-05T05:00:19;4.00;;;2.15;;
76202;SDS011;64985;46.364;17.008;2023-02-05T05:03:22;7.13;;;3.13;;
76202;SDS011;64985;46.364;17.008;2023-02-05T05:06:24;5.07;;;2.40;;
76202;SDS011;64985;46.364;17.008;2023-02-05T05:09:26;5.13;;;2.35;;
76202;SDS011;64985;46.364;17.008;2023-02-05T05:12:28;5.55;;;2.33;;
76202;SDS011;64985;46.364;17.008;2023-02-05T05:15:30;4.95;;;2.42;;
76202;SDS011;64985;46.364;17.008;2023-02-05T05:18:33;4.05;;;2.05;;
76202;SDS011;64985;46.364;17.008;2023-02-05T05:21:36;4.57;;;2.20;;
76202;SDS011;64985;46.364;17.008;2023-02-05T05:24:38;5.13;;;2.10;;
76202;SDS011;64985;46.364;17.008;2023-02-05T05:27:40;5.57;;;2.72;;
76202;SDS011;64985;46.364;17.008;2023-02-05T05:30:43;9.00;;;3.17;;
76202;SDS011;64985;46.364;17.008;2023-02-05T05:33:46;7.68;;;3.40;;
76202;SDS011;64985;46.364;17.008;2023-02-05T05:36:48;9.45;;;3.90;;
76202;SDS011;64985;46.364;17.008;2023-02-05T05:39:50;4.65;;;2.35;;
76202;SDS011;64985;46.364;17.008;2023-02-05T05:43:14;5.97;;;2.78;;
76202;SDS011;64985;46.364;17.008;2023-02-05T05:46:37;6.95;;;3.65;;
76202;SDS011;64985;46.364;17.008;2023-02-05T05:49:39;5.75;;;3.25;;
76202;SDS011;64985;46.364;17.008;2023-02-05T05:52:41;4.88;;;2.60;;
76202;SDS011;64985;46.364;17.008;2023-02-05T05:55:43;8.05;;;3.40;;
76202;SDS011;64985;46.364;17.008;2023-02-05T05:58:45;7.95;;;3.08;;
76202;SDS011;64985;46.364;17.008;2023-02-05T06:01:49;9.23;;;3.60;;
76202;SDS011;64985;46.364;17.008;2023-02-05T06:04:51;9.13;;;4.30;;
76202;SDS011;64985;46.364;17.008;2023-02-05T06:07:53;9.15;;;4.22;;
76202;SDS011;64985;46.364;17.008;2023-02-05T06:10:56;9.40;;;3.85;;
76202;SDS011;64985;46.364;17.008;2023-02-05T06:13:59;14.88;;;6.82;;
76202;SDS011;64985;46.364;17.008;2023-02-05T06:17:01;12.68;;;4.90;;
76202;SDS011;64985;46.364;17.008;2023-02-05T06:20:04;12.85;;;5.28;;
76202;SDS011;64985;46.364;17.008;2023-02-05T06:23:06;7.40;;;3.35;;
76202;SDS011;64985;46.364;17.008;2023-02-05T06:26:08;6.60;;;3.50;;
76202;SDS011;64985;46.364;17.008;2023-02-05T06:29:10;8.55;;;3.90;;
76202;SDS011;64985;46.364;17.008;2023-02-05T06:32:13;7.47;;;3.33;;
76202;SDS011;64985;46.364;17.008;2023-02-05T06:35:15;5.93;;;2.90;;
76202;SDS011;64985;46.364;17.008;2023-02-05T06:38:17;8.13;;;3.10;;
76202;SDS011;64985;46.364;17.008;2023-02-05T06:41:19;9.30;;;3.85;;
76202;SDS011;64985;46.364;17.008;2023-02-05T06:44:21;5.97;;;2.60;;
76202;SDS011;64985;46.364;17.008;2023-02-05T06:47:24;8.82;;;2.70;;
76202;SDS011;64985;46.364;17.008;2023-02-05T06:50:27;6.63;;;2.70;;
76202;SDS011;64985;46.364;17.008;2023-02-05T06:53:29;14.15;;;6.07;;
76202;SDS011;64985;46.364;17.008;2023-02-05T06:56:31;14.18;;;5.40;;
76202;SDS011;64985;46.364;17.008;2023-02-05T06:59:33;8.90;;;4.05;;
76202;SDS011;64985;46.364;17.008;2023-02-05T07:02:36;8.68;;;4.07;;
76202;SDS011;64985;46.364;17.008;2023-02-05T07:05:38;7.50;;;4.07;;
76202;SDS011;64985;46.364;17.008;2023-02-05T07:08:40;7.78;;;3.33;;
76202;SDS011;64985;46.364;17.008;2023-02-05T07:11:43;6.60;;;2.45;;
76202;SDS011;64985;46.364;17.008;2023-02-05T07:14:46;4.88;;;2.17;;
76202;SDS011;64985;46.364;17.008;2023-02-05T07:17:48;5.07;;;2.28;;
76202;SDS011;64985;46.364;17.008;2023-02-05T07:20:51;3.90;;;2.17;;
76202;SDS011;64985;46.364;17.008;2023-02-05T07:23:53;5.25;;;2.30;;
76202;SDS011;64985;46.364;17.008;2023-02-05T07:26:55;6.93;;;2.85;;
76202;SDS011;64985;46.364;17.008;2023-02-05T07:29:57;3.92;;;2.20;;
76202;SDS011;64985;46.364;17.008;2023-02-05T07:33:00;3.45;;;1.90;;
76202;SDS011;64985;46.364;17.008;2023-02-05T07:36:04;4.55;;;2.28;;
76202;SDS011;64985;46.364;17.008;2023-02-05T07:39:08;5.97;;;2.35;;
76202;SDS011;64985;46.364;17.008;2023-02-05T07:42:10;9.55;;;3.97;;
76202;SDS011;64985;46.364;17.008;2023-02-05T07:45:12;6.50;;;2.70;;
76202;SDS011;64985;46.364;17.008;2023-02-05T07:48:14;8.07;;;3.40;;
76202;SDS011;64985;46.364;17.008;2023-02-05T07:51:21;5.13;;;2.80;;
76202;SDS011;64985;46.364;17.008;2023-02-05T07:54:24;4.45;;;2.10;;
76202;SDS011;64985;46.364;17.008;2023-02-05T07:57:27;4.43;;;2.65;;
76202;SDS011;64985;46.364;17.008;2023-02-05T08:00:29;4.38;;;2.40;;
76202;SDS011;64985;46.364;17.008;2023-02-05T08:03:32;5.38;;;2.13;;
76202;SDS011;64985;46.364;17.008;2023-02-05T08:06:35;5.13;;;2.55;;
76202;SDS011;64985;46.364;17.008;2023-02-05T08:09:37;4.18;;;2.20;;
76202;SDS011;64985;46.364;17.008;2023-02-05T08:12:39;5.32;;;2.30;;
76202;SDS011;64985;46.364;17.008;2023-02-05T08:15:42;4.63;;;2.42;;
76202;SDS011;64985;46.364;17.008;2023-02-05T08:18:47;9.68;;;2.70;;
76202;SDS011;64985;46.364;17.008;2023-02-05T08:21:50;4.70;;;2.20;;
76202;SDS011;64985;46.364;17.008;2023-02-05T08:24:53;6.35;;;2.40;;
76202;SDS011;64985;46.364;17.008;2023-02-05T08:27:55;5.90;;;2.55;;
76202;SDS011;64985;46.364;17.008;2023-02-05T08:30:58;4.55;;;1.83;;
76202;SDS011;64985;46.364;17.008;2023-02-05T08:34:00;5.40;;;1.98;;
76202;SDS011;64985;46.364;17.008;2023-02-05T08:37:02;3.58;;;1.80;;
76202;SDS011;64985;46.364;17.008;2023-02-05T08:40:06;4.95;;;1.95;;
76202;SDS011;64985;46.364;17.008;2023-02-05T08:43:09;5.40;;;2.22;;
76202;SDS011;64985;46.364;17.008;2023-02-05T08:46:12;8.32;;;4.25;;
76202;SDS011;64985;46.364;17.008;2023-02-05T08:49:16;10.85;;;5.40;;
76202;SDS011;64985;46.364;17.008;2023-02-05T08:52:18;4.30;;;2.30;;
76202;SDS011;64985;46.364;17.008;2023-02-05T08:55:20;7.63;;;3.45;;
76202;SDS011;64985;46.364;17.008;2023-02-05T08:58:23;3.28;;;1.60;;
76202;SDS011;64985;46.364;17.008;2023-02-05T09:01:25;5.05;;;1.67;;
76202;SDS011;64985;46.364;17.008;2023-02-05T09:04:27;3.33;;;2.08;;
76202;SDS011;64985;46.364;17.008;2023-02-05T09:07:30;5.82;;;2.40;;
76202;SDS011;64985;46.364;17.008;2023-02-05T09:10:32;4.05;;;2.20;;
76202;SDS011;64985;46.364;17.008;2023-02-05T09:13:34;5.97;;;2.92;;
76202;SDS011;64985;46.364;17.008;2023-02-05T09:16:37;2.92;;;1.60;;
76202;SDS011;64985;46.364;17.008;2023-02-05T09:19:40;3.67;;;2.20;;
76202;SDS011;64985;46.364;17.008;2023-02-05T09:22:42;4.03;;;2.13;;
76202;SDS011;64985;46.364;17.008;2023-02-05T09:25:44;3.63;;;1.70;;
76202;SDS011;64985;46.364;17.008;2023-02-05T09:28:46;4.10;;;2.17;;
76202;SDS011;64985;46.364;17.008;2023-02-05T09:31:49;5.00;;;2.22;;
76202;SDS011;64985;46.364;17.008;2023-02-05T09:34:51;5.20;;;2.72;;
76202;SDS011;64985;46.364;17.008;2023-02-05T09:37:53;9.07;;;3.78;;
76202;SDS011;64985;46.364;17.008;2023-02-05T09:41:00;11.77;;;4.95;;
76202;SDS011;64985;46.364;17.008;2023-02-05T09:47:28;7.85;;;3.92;;
76202;SDS011;64985;46.364;17.008;2023-02-05T09:50:36;10.30;;;4.47;;
76202;SDS011;64985;46.364;17.008;2023-02-05T09:53:43;8.10;;;2.53;;
76202;SDS011;64985;46.364;17.008;2023-02-05T09:56:54;6.88;;;3.75;;
76202;SDS011;64985;46.364;17.008;2023-02-05T09:59:59;5.10;;;2.80;;
76202;SDS011;64985;46.364;17.008;2023-02-05T10:03:14;3.85;;;2.00;;
76202;SDS011;64985;46.364;17.008;2023-02-05T10:06:32;4.38;;;2.42;;
76202;SDS011;64985;46.364;17.008;2023-02-05T10:09:58;5.88;;;3.20;;
76202;SDS011;64985;46.364;17.008;2023-02-05T10:27:09;6.72;;;3.13;;
76202;SDS011;64985;46.364;17.008;2023-02-05T10:33:53;5.22;;;2.42;;
76202;SDS011;64985;46.364;17.008;2023-02-05T10:37:15;5.68;;;2.60;;
76202;SDS011;64985;46.364;17.008;2023-02-05T10:40:22;4.78;;;2.78;;
76202;SDS011;64985;46.364;17.008;2023-02-05T10:43:29;5.82;;;3.20;;
76202;SDS011;64985;46.364;17.008;2023-02-05T10:46:45;5.43;;;3.15;;
76202;SDS011;64985;46.364;17.008;2023-02-05T10:53:18;5.75;;;3.22;;
76202;SDS011;64985;46.364;17.008;2023-02-05T10:56:22;6.00;;;2.40;;
76202;SDS011;64985;46.364;17.008;2023-02-05T10:59:28;5.13;;;2.40;;
76202;SDS011;64985;46.364;17.008;2023-02-05T11:02:33;5.53;;;2.60;;
76202;SDS011;64985;46.364;17.008;2023-02-05T11:05:39;4.25;;;2.50;;
76202;SDS011;64985;46.364;17.008;2023-02-05T11:08:42;5.32;;;2.70;;
76202;SDS011;64985;46.364;17.008;2023-02-05T11:11:49;6.63;;;2.60;;
76202;SDS011;64985;46.364;17.008;2023-02-05T11:15:02;4.00;;;2.30;;
76202;SDS011;64985;46.364;17.008;2023-02-05T11:18:05;5.60;;;2.72;;
76202;SDS011;64985;46.364;17.008;2023-02-05T11:21:09;3.33;;;1.80;;
76202;SDS011;64985;46.364;17.008;2023-02-05T11:27:33;3.55;;;2.10;;
76202;SDS011;64985;46.364;17.008;2023-02-05T11:30:36;4.65;;;2.40;;
76202;SDS011;64985;46.364;17.008;2023-02-05T11:37:12;3.75;;;2.00;;
76202;SDS011;64985;46.364;17.008;2023-02-05T11:40:21;3.92;;;2.10;;
76202;SDS011;64985;46.364;17.008;2023-02-05T11:43:30;4.40;;;2.08;;
76202;SDS011;64985;46.364;17.008;2023-02-05T11:46:43;5.07;;;2.65;;
76202;SDS011;64985;46.364;17.008;2023-02-05T11:49:48;3.60;;;2.22;;
76202;SDS011;64985;46.364;17.008;2023-02-05T11:52:53;5.07;;;2.92;;
76202;SDS011;64985;46.364;17.008;2023-02-05T11:55:57;6.90;;;3.42;;
76202;SDS011;64985;46.364;17.008;2023-02-05T11:59:04;8.23;;;3.70;;
76202;SDS011;64985;46.364;17.008;2023-02-05T12:02:29;3.95;;;2.10;;
76202;SDS011;64985;46.364;17.008;2023-02-05T12:05:38;5.93;;;2.47;;
76202;SDS011;64985;46.364;17.008;2023-02-05T12:15:33;7.30;;;3.63;;
76202;SDS011;64985;46.364;17.008;2023-02-05T12:19:00;17.20;;;8.13;;
76202;SDS011;64985;46.364;17.008;2023-02-05T12:22:26;9.13;;;4.93;;
76202;SDS011;64985;46.364;17.008;2023-02-05T12:32:43;5.38;;;3.30;;
76202;SDS011;64985;46.364;17.008;2023-02-05T12:42:30;5.05;;;2.30;;
76202;SDS011;64985;46.364;17.008;2023-02-05T12:45:46;4.70;;;2.53;;
76202;SDS011;64985;46.364;17.008;2023-02-05T12:52:20;4.10;;;2.50;;
76202;SDS011;64985;46.364;17.008;2023-02-05T12:58:52;5.05;;;2.60;;
76202;SDS011;64985;46.364;17.008;2023-02-05T13:05:27;4.88;;;2.42;;
76202;SDS011;64985;46.364;17.008;2023-02-05T13:11:52;4.38;;;2.15;;
76202;SDS011;64985;46.364;17.008;2023-02-05T13:18:25;3.35;;;1.90;;
76202;SDS011;64985;46.364;17.008;2023-02-05T13:21:32;5.60;;;2.70;;
76202;SDS011;64985;46.364;17.008;2023-02-05T13:25:01;6.18;;;3.25;;
76202;SDS011;64985;46.364;17.008;2023-02-05T13:28:56;3.58;;;1.90;;
76202;SDS011;64985;46.364;17.008;2023-02-05T13:32:08;6.80;;;3.47;;
76202;SDS011;64985;46.364;17.008;2023-02-05T13:35:17;7.03;;;3.67;;
76202;SDS011;64985;46.364;17.008;2023-02-05T13:38:25;4.43;;;2.20;;
76202;SDS011;64985;46.364;17.008;2023-02-05T13:45:29;10.00;;;5.30;;
76202;SDS011;64985;46.364;17.008;2023-02-05T13:56:32;6.85;;;3.53;;
76202;SDS011;64985;46.364;17.008;2023-02-05T13:59:42;6.15;;;3.38;;
76202;SDS011;64985;46.364;17.008;2023-02-05T14:02:53;5.95;;;3.22;;
76202;SDS011;64985;46.364;17.008;2023-02-05T14:05:58;5.80;;;2.70;;
76202;SDS011;64985;46.364;17.008;2023-02-05T14:09:18;3.55;;;2.05;;
76202;SDS011;64985;46.364;17.008;2023-02-05T14:12:35;5.10;;;2.03;;
76202;SDS011;64985;46.364;17.008;2023-02-05T14:15:40;3.50;;;2.10;;
76202;SDS011;64985;46.364;17.008;2023-02-05T14:18:47;4.07;;;2.20;;
76202;SDS011;64985;46.364;17.008;2023-02-05T14:21:56;4.07;;;2.30;;
76202;SDS011;64985;46.364;17.008;2023-02-05T14:25:01;5.75;;;2.80;;
76202;SDS011;64985;46.364;17.008;2023-02-05T14:28:31;5.15;;;2.65;;
76202;SDS011;64985;46.364;17.008;2023-02-05T14:31:46;5.30;;;2.42;;
76202;SDS011;64985;46.364;17.008;2023-02-05T14:34:57;5.80;;;3.08;;
76202;SDS011;64985;46.364;17.008;2023-02-05T14:38:02;6.97;;;3.33;;
76202;SDS011;64985;46.364;17.008;2023-02-05T14:41:24;8.95;;;4.43;;
76202;SDS011;64985;46.364;17.008;2023-02-05T14:44:29;7.95;;;3.95;;
76202;SDS011;64985;46.364;17.008;2023-02-05T14:47:37;9.98;;;4.35;;
76202;SDS011;64985;46.364;17.008;2023-02-05T14:50:44;9.40;;;4.65;;
76202;SDS011;64985;46.364;17.008;2023-02-05T14:54:05;6.03;;;2.97;;
76202;SDS011;64985;46.364;17.008;2023-02-05T15:00:40;3.83;;;2.40;;
76202;SDS011;64985;46.364;17.008;2023-02-05T15:03:46;7.65;;;3.83;;
76202;SDS011;64985;46.364;17.008;2023-02-05T15:06:49;6.75;;;3.88;;
76202;SDS011;64985;46.364;17.008;2023-02-05T15:09:58;5.28;;;2.25;;
76202;SDS011;64985;46.364;17.008;2023-02-05T15:13:11;4.10;;;2.30;;
76202;SDS011;64985;46.364;17.008;2023-02-05T15:16:19;3.95;;;2.45;;
76202;SDS011;64985;46.364;17.008;2023-02-05T15:19:23;8.60;;;4.60;;
76202;SDS011;64985;46.364;17.008;2023-02-05T15:22:32;6.28;;;2.90;;
76202;SDS011;64985;46.364;17.008;2023-02-05T15:25:43;15.55;;;5.35;;
76202;SDS011;64985;46.364;17.008;2023-02-05T15:28:56;33.50;;;9.55;;
76202;SDS011;64985;46.364;17.008;2023-02-05T15:32:41;14.43;;;5.15;;
76202;SDS011;64985;46.364;17.008;2023-02-05T15:35:55;8.73;;;3.85;;
76202;SDS011;64985;46.364;17.008;2023-02-05T15:39:06;12.88;;;5.28;;
76202;SDS011;64985;46.364;17.008;2023-02-05T15:42:19;8.55;;;3.85;;
76202;SDS011;64985;46.364;17.008;2023-02-05T15:45:29;5.22;;;2.38;;
76202;SDS011;64985;46.364;17.008;2023-02-05T15:48:38;4.75;;;2.60;;
76202;SDS011;64985;46.364;17.008;2023-02-05T15:51:42;4.05;;;2.40;;
76202;SDS011;64985;46.364;17.008;2023-02-05T15:54:49;9.10;;;3.13;;
76202;SDS011;64985;46.364;17.008;2023-02-05T15:58:03;12.68;;;5.30;;
76202;SDS011;64985;46.364;17.008;2023-02-05T16:01:09;17.52;;;8.80;;
76202;SDS011;64985;46.364;17.008;2023-02-05T16:04:16;6.70;;;3.20;;
76202;SDS011;64985;46.364;17.008;2023-02-05T16:07:34;10.57;;;5.30;;
76202;SDS011;64985;46.364;17.008;2023-02-05T16:10:49;17.13;;;7.78;;
76202;SDS011;64985;46.364;17.008;2023-02-05T16:14:05;11.40;;;5.22;;
76202;SDS011;64985;46.364;17.008;2023-02-05T16:17:19;14.00;;;6.20;;
76202;SDS011;64985;46.364;17.008;2023-02-05T16:20:29;10.75;;;5.22;;
76202;SDS011;64985;46.364;17.008;2023-02-05T16:23:40;12.00;;;5.13;;
76202;SDS011;64985;46.364;17.008;2023-02-05T16:26:50;13.23;;;5.45;;
76202;SDS011;64985;46.364;17.008;2023-02-05T16:30:02;15.48;;;6.10;;
76202;SDS011;64985;46.364;17.008;2023-02-05T16:33:32;11.02;;;4.28;;
76202;SDS011;64985;46.364;17.008;2023-02-05T16:36:45;11.18;;;5.07;;
76202;SDS011;64985;46.364;17.008;2023-02-05T16:39:52;17.65;;;6.88;;
76202;SDS011;64985;46.364;17.008;2023-02-05T16:42:58;15.32;;;5.68;;
76202;SDS011;64985;46.364;17.008;2023-02-05T16:52:33;8.63;;;4.28;;
76202;SDS011;64985;46.364;17.008;2023-02-05T16:55:39;8.50;;;4.07;;
76202;SDS011;64985;46.364;17.008;2023-02-05T16:58:45;10.15;;;5.38;;
76202;SDS011;64985;46.364;17.008;2023-02-05T17:01:52;13.33;;;6.17;;
76202;SDS011;64985;46.364;17.008;2023-02-05T17:04:56;12.38;;;6.97;;
76202;SDS011;64985;46.364;17.008;2023-02-05T17:08:07;12.63;;;5.82;;
76202;SDS011;64985;46.364;17.008;2023-02-05T17:14:40;18.90;;;8.02;;
76202;SDS011;64985;46.364;17.008;2023-02-05T17:21:35;21.13;;;9.35;;
76202;SDS011;64985;46.364;17.008;2023-02-05T17:24:40;24.80;;;10.70;;
76202;SDS011;64985;46.364;17.008;2023-02-05T17:27:44;16.70;;;8.70;;
76202;SDS011;64985;46.364;17.008;2023-02-05T17:30:49;18.65;;;9.68;;
76202;SDS011;64985;46.364;17.008;2023-02-05T17:33:54;14.65;;;7.00;;
76202;SDS011;64985;46.364;17.008;2023-02-05T17:37:00;14.95;;;6.65;;
76202;SDS011;64985;46.364;17.008;2023-02-05T17:40:06;12.05;;;6.25;;
76202;SDS011;64985;46.364;17.008;2023-02-05T17:43:12;11.98;;;5.72;;
76202;SDS011;64985;46.364;17.008;2023-02-05T17:46:16;8.80;;;5.07;;
76202;SDS011;64985;46.364;17.008;2023-02-05T17:49:19;8.30;;;4.22;;
76202;SDS011;64985;46.364;17.008;2023-02-05T17:52:24;11.98;;;5.65;;
76202;SDS011;64985;46.364;17.008;2023-02-05T17:55:28;14.23;;;6.68;;
76202;SDS011;64985;46.364;17.008;2023-02-05T17:58:32;15.45;;;7.20;;
76202;SDS011;64985;46.364;17.008;2023-02-05T18:01:36;18.98;;;7.72;;
76202;SDS011;64985;46.364;17.008;2023-02-05T18:04:40;12.07;;;5.82;;
76202;SDS011;64985;46.364;17.008;2023-02-05T18:07:50;12.63;;;5.70;;
76202;SDS011;64985;46.364;17.008;2023-02-05T18:10:55;14.52;;;6.70;;
76202;SDS011;64985;46.364;17.008;2023-02-05T18:13:58;13.88;;;6.30;;
76202;SDS011;64985;46.364;17.008;2023-02-05T18:17:02;10.77;;;5.00;;
76202;SDS011;64985;46.364;17.008;2023-02-05T18:20:06;19.80;;;9.05;;
76202;SDS011;64985;46.364;17.008;2023-02-05T18:23:12;22.58;;;11.15;;
76202;SDS011;64985;46.364;17.008;2023-02-05T18:26:29;13.20;;;6.88;;
76202;SDS011;64985;46.364;17.008;2023-02-05T18:29:33;13.13;;;4.93;;
76202;SDS011;64985;46.364;17.008;2023-02-05T18:32:38;9.23;;;4.70;;
76202;SDS011;64985;46.364;17.008;2023-02-05T18:35:41;11.50;;;5.82;;
76202;SDS011;64985;46.364;17.008;2023-02-05T18:38:44;9.88;;;4.63;;
76202;SDS011;64985;46.364;17.008;2023-02-05T18:41:48;7.43;;;4.05;;
76202;SDS011;64985;46.364;17.008;2023-02-05T18:44:51;8.20;;;3.63;;
76202;SDS011;64985;46.364;17.008;2023-02-05T18:47:55;8.55;;;4.60;;
76202;SDS011;64985;46.364;17.008;2023-02-05T18:50:58;8.27;;;3.75;;
76202;SDS011;64985;46.364;17.008;2023-02-05T18:54:06;8.35;;;4.00;;
76202;SDS011;64985;46.364;17.008;2023-02-05T18:57:10;10.25;;;4.03;;
76202;SDS011;64985;46.364;17.008;2023-02-05T19:00:15;13.90;;;4.90;;
76202;SDS011;64985;46.364;17.008;2023-02-05T19:03:19;12.55;;;5.22;;
76202;SDS011;64985;46.364;17.008;2023-02-05T19:06:22;11.88;;;5.00;;
76202;SDS011;64985;46.364;17.008;2023-02-05T19:09:26;9.90;;;4.75;;
76202;SDS011;64985;46.364;17.008;2023-02-05T19:12:32;8.85;;;4.03;;
76202;SDS011;64985;46.364;17.008;2023-02-05T19:15:37;11.52;;;4.78;;
76202;SDS011;64985;46.364;17.008;2023-02-05T19:18:42;8.10;;;3.90;;
76202;SDS011;64985;46.364;17.008;2023-02-05T19:21:51;10.32;;;4.88;;
76202;SDS011;64985;46.364;17.008;2023-02-05T19:24:55;8.15;;;3.92;;
76202;SDS011;64985;46.364;17.008;2023-02-05T19:27:59;11.20;;;5.93;;
76202;SDS011;64985;46.364;17.008;2023-02-05T19:31:03;8.75;;;4.10;;
76202;SDS011;64985;46.364;17.008;2023-02-05T19:34:08;9.43;;;4.55;;
76202;SDS011;64985;46.364;17.008;2023-02-05T19:37:12;8.77;;;5.03;;
76202;SDS011;64985;46.364;17.008;2023-02-05T19:40:16;10.13;;;4.05;;
76202;SDS011;64985;46.364;17.008;2023-02-05T19:43:20;14.95;;;6.55;;
76202;SDS011;64985;46.364;17.008;2023-02-05T19:46:26;12.10;;;4.97;;
76202;SDS011;64985;46.364;17.008;2023-02-05T19:49:31;10.48;;;5.25;;
76202;SDS011;64985;46.364;17.008;2023-02-05T19:52:36;12.32;;;6.28;;
76202;SDS011;64985;46.364;17.008;2023-02-05T19:55:41;10.85;;;5.63;;
76202;SDS011;64985;46.364;17.008;2023-02-05T19:58:46;12.00;;;6.07;;
76202;SDS011;64985;46.364;17.008;2023-02-05T20:01:52;20.77;;;8.80;;
76202;SDS011;64985;46.364;17.008;2023-02-05T20:04:57;12.02;;;5.25;;
76202;SDS011;64985;46.364;17.008;2023-02-05T20:08:00;11.20;;;5.22;;
76202;SDS011;64985;46.364;17.008;2023-02-05T20:11:05;14.43;;;6.18;;
76202;SDS011;64985;46.364;17.008;2023-02-05T20:14:09;14.48;;;6.20;;
76202;SDS011;64985;46.364;17.008;2023-02-05T20:17:14;13.27;;;5.50;;
76202;SDS011;64985;46.364;17.008;2023-02-05T20:20:20;15.68;;;5.78;;
76202;SDS011;64985;46.364;17.008;2023-02-05T20:23:46;12.80;;;6.05;;